Time;durP1;ratioP1;P1;durP2;ratioP2;P2;SDS_P1;SDS_P2;PMS_P1;PMS_P2;Temp;Humidity;BMP_temperature;BMP_pressure;BME280_temperature;BME280_humidity;BME280_pressure;Samples;Min_cycle;Max_cycle;Signal;HPM_P1;HPM_P2
2022/09/12 00:00:08;;;;;;;;;;;18.70;74.30;;;;;;5132420;27;20347;-70
2022/09/12 00:02:33;;;;;;;;;;;18.70;74.30;;;;;;5117881;27;19994;-70
2022/09/12 00:04:59;;;;;;;;;;;18.70;74.30;;;;;;5136436;27;19909;-70
2022/09/12 00:07:24;;;;;;;;;;;18.70;74.20;;;;;;5134040;27;20344;-69
2022/09/12 00:09:50;;;;;;;;;;;18.60;74.30;;;;;;5136691;27;20083;-69
2022/09/12 00:12:16;;;;;;;;;;;18.70;74.40;;;;;;5118080;27;20430;-69
2022/09/12 00:14:41;;;;;;;;;;;18.70;74.50;;;;;;5134452;27;19914;-69
2022/09/12 00:17:07;;;;;;;;;;;18.70;74.50;;;;;;5118734;27;19908;-69
2022/09/12 00:19:33;;;;;;;;;;;18.70;74.40;;;;;;5136536;27;19956;-70
2022/09/12 00:21:58;;;;;;;;;;;18.70;74.30;;;;;;5136550;27;19908;-69
2022/09/12 00:24:24;;;;;;;;;;;18.70;74.30;;;;;;5136401;27;19978;-71
2022/09/12 00:26:49;;;;;;;;;;;18.60;74.20;;;;;;5117583;27;19945;-68
2022/09/12 00:29:16;;;;;;;;;;;18.60;74.20;;;;;;5115509;27;20002;-69
2022/09/12 00:31:42;;;;;;;;;;;18.60;74.30;;;;;;5125020;27;19908;-70
2022/09/12 00:34:08;;;;;;;;;;;18.60;74.30;;;;;;5134244;27;19911;-70
2022/09/12 00:36:34;;;;;;;;;;;18.70;74.30;;;;;;5135888;27;19914;-70
2022/09/12 00:39:00;;;;;;;;;;;18.60;74.20;;;;;;5136202;27;19903;-70
2022/09/12 00:41:27;;;;;;;;;;;18.60;74.20;;;;;;5135298;27;19914;-70
2022/09/12 00:43:53;;;;;;;;;;;18.60;74.20;;;;;;5123348;27;19907;-69
2022/09/12 00:46:22;;;;;;;;;;;18.60;74.20;;;;;;5115522;28;19950;-70
2022/09/12 00:48:57;;;;;;;;;;;18.60;74.30;;;;;;5115241;27;20474;-70
2022/09/12 00:51:23;;;;;;;;;;;18.60;74.30;;;;;;5115389;28;19910;-70
2022/09/12 00:53:50;;;;;;;;;;;18.60;74.40;;;;;;5115279;28;20343;-70
2022/09/12 00:56:17;;;;;;;;;;;18.60;74.40;;;;;;5096992;28;19904;-70
2022/09/12 00:58:47;;;;;;;;;;;18.50;74.30;;;;;;5114940;27;20265;-70
2022/09/12 01:01:13;;;;;;;;;;;18.60;74.40;;;;;;5115104;28;19991;-70
2022/09/12 01:03:39;;;;;;;;;;;18.50;74.40;;;;;;5115121;28;19988;-70
2022/09/12 01:06:08;;;;;;;;;;;18.50;74.30;;;;;;5096624;28;19908;-70
2022/09/12 01:08:36;;;;;;;;;;;18.60;74.40;;;;;;5114835;28;20387;-70
2022/09/12 01:11:02;;;;;;;;;;;18.50;74.30;;;;;;5114839;28;19903;-70
2022/09/12 01:13:28;;;;;;;;;;;18.50;74.40;;;;;;5114859;28;19904;-70
2022/09/12 01:15:54;;;;;;;;;;;18.50;74.40;;;;;;5104648;28;19952;-70
2022/09/12 01:18:20;;;;;;;;;;;18.50;74.40;;;;;;5114850;28;19911;-70
2022/09/12 01:21:00;;;;;;;;;;;18.50;74.40;;;;;;5114710;28;19907;-70
2022/09/12 01:23:50;;;;;;;;;;;18.50;74.50;;;;;;5115324;28;19903;-70
2022/09/12 01:26:24;;;;;;;;;;;18.50;74.50;;;;;;5127837;27;19914;-70
2022/09/12 01:29:08;;;;;;;;;;;18.50;74.50;;;;;;5112593;28;20389;-70
2022/09/12 01:31:46;;;;;;;;;;;18.50;74.50;;;;;;5114878;27;19907;-69
2022/09/12 01:34:11;;;;;;;;;;;18.50;74.50;;;;;;5135033;27;19916;-69
2022/09/12 01:36:37;;;;;;;;;;;18.50;74.60;;;;;;5133160;27;20041;-69
2022/09/12 01:39:29;;;;;;;;;;;18.40;74.50;;;;;;5118340;27;20303;-69
2022/09/12 01:42:03;;;;;;;;;;;18.50;74.50;;;;;;5108916;28;20015;-69
2022/09/12 01:44:28;;;;;;;;;;;18.50;74.50;;;;;;5114115;28;19907;-69
2022/09/12 01:47:13;;;;;;;;;;;18.40;74.50;;;;;;5114045;28;19903;-69
2022/09/12 01:49:45;;;;;;;;;;;18.40;74.50;;;;;;5113987;28;19907;-69
2022/09/12 01:52:33;;;;;;;;;;;18.40;74.50;;;;;;5113864;28;19904;-68
2022/09/12 01:55:17;;;;;;;;;;;18.40;74.50;;;;;;5095712;28;20441;-69
2022/09/12 01:57:50;;;;;;;;;;;18.40;74.50;;;;;;5113816;28;19904;-68
2022/09/12 02:00:15;;;;;;;;;;;18.40;74.50;;;;;;5113652;28;20467;-70
2022/09/12 02:02:53;;;;;;;;;;;18.40;74.60;;;;;;5113693;28;19908;-69
2022/09/12 02:05:22;;;;;;;;;;;18.40;74.50;;;;;;5113702;28;19912;-68
2022/09/12 02:07:50;;;;;;;;;;;18.40;74.50;;;;;;5113655;28;19999;-69
2022/09/12 02:10:20;;;;;;;;;;;18.30;74.40;;;;;;5113613;28;20014;-69
2022/09/12 02:12:49;;;;;;;;;;;18.40;74.40;;;;;;5113374;27;19903;-69
2022/09/12 02:15:16;;;;;;;;;;;18.30;74.40;;;;;;5113575;28;19907;-68
2022/09/12 02:17:43;;;;;;;;;;;18.30;74.40;;;;;;5113577;28;19911;-69
2022/09/12 02:20:28;;;;;;;;;;;18.30;75.20;;;;;;5113160;28;19950;-69
2022/09/12 02:22:55;;;;;;;;;;;18.30;74.30;;;;;;5113326;28;19998;-69
2022/09/12 02:25:22;;;;;;;;;;;18.30;74.30;;;;;;5113311;28;19936;-69
2022/09/12 02:27:50;;;;;;;;;;;18.30;74.40;;;;;;5113456;28;19914;-68
2022/09/12 02:30:18;;;;;;;;;;;18.30;74.40;;;;;;5113434;28;20362;-70
2022/09/12 02:33:02;;;;;;;;;;;18.30;74.50;;;;;;5114471;27;19964;-68
2022/09/12 02:35:35;;;;;;;;;;;18.20;74.40;;;;;;5113582;28;19904;-68
2022/09/12 02:38:04;;;;;;;;;;;18.30;74.50;;;;;;5113807;28;19908;-68
2022/09/12 02:40:31;;;;;;;;;;;18.20;74.40;;;;;;5095149;28;20342;-68
2022/09/12 02:42:57;;;;;;;;;;;18.20;74.50;;;;;;5113565;28;19904;-68
2022/09/12 02:45:23;;;;;;;;;;;18.30;74.60;;;;;;5113464;28;20332;-68
2022/09/12 02:47:53;;;;;;;;;;;18.30;74.60;;;;;;5113332;28;19915;-68
2022/09/12 02:50:19;;;;;;;;;;;18.20;74.60;;;;;;5113282;28;19908;-68
2022/09/12 02:52:45;;;;;;;;;;;18.20;74.50;;;;;;5113276;28;19926;-68
2022/09/12 02:55:12;;;;;;;;;;;18.20;74.50;;;;;;5113315;28;19903;-68
2022/09/12 02:57:40;;;;;;;;;;;18.20;74.50;;;;;;5113261;28;19907;-68
2022/09/12 03:00:07;;;;;;;;;;;18.20;74.40;;;;;;5113264;28;19910;-67
2022/09/12 03:02:39;;;;;;;;;;;18.30;74.50;;;;;;5113189;28;20363;-69
2022/09/12 03:05:10;;;;;;;;;;;18.20;74.40;;;;;;5113333;28;19900;-69
2022/09/12 03:07:51;;;;;;;;;;;18.20;74.40;;;;;;5113218;28;19908;-69
2022/09/12 03:10:19;;;;;;;;;;;18.20;74.40;;;;;;5113288;28;19953;-69
2022/09/12 03:13:07;;;;;;;;;;;18.20;74.40;;;;;;5094683;28;20366;-69
2022/09/12 03:15:43;;;;;;;;;;;18.20;74.40;;;;;;5095003;28;19904;-69
2022/09/12 03:18:28;;;;;;;;;;;18.20;74.40;;;;;;5113370;28;19998;-69
2022/09/12 03:21:01;;;;;;;;;;;18.20;74.40;;;;;;5112934;28;20274;-69
2022/09/12 03:23:47;;;;;;;;;;;18.20;74.50;;;;;;5113517;28;20002;-69
2022/09/12 03:26:15;;;;;;;;;;;18.10;74.40;;;;;;5095226;28;20298;-70
2022/09/12 03:28:42;;;;;;;;;;;18.10;74.40;;;;;;5094628;28;19911;-69
2022/09/12 03:31:14;;;;;;;;;;;18.10;74.40;;;;;;5118000;28;19915;-69
2022/09/12 03:33:40;;;;;;;;;;;18.10;74.40;;;;;;5096717;28;19915;-68
2022/09/12 03:36:09;;;;;;;;;;;18.10;74.30;;;;;;5116814;28;19990;-69
2022/09/12 03:38:34;;;;;;;;;;;18.10;74.30;;;;;;5098427;28;19910;-68
2022/09/12 03:41:00;;;;;;;;;;;18.10;74.30;;;;;;5116676;28;19904;-69
2022/09/12 03:43:25;;;;;;;;;;;18.00;74.20;;;;;;5116548;27;19908;-69
2022/09/12 03:45:52;;;;;;;;;;;18.00;74.20;;;;;;5116610;28;19903;-69
2022/09/12 03:48:17;;;;;;;;;;;18.00;74.20;;;;;;5116567;28;19952;-68
2022/09/12 03:50:43;;;;;;;;;;;18.00;74.20;;;;;;5116328;27;19908;-68
2022/09/12 03:53:08;;;;;;;;;;;17.90;74.10;;;;;;5116645;28;19911;-69
2022/09/12 03:55:35;;;;;;;;;;;17.90;74.20;;;;;;5131406;27;19907;-68
2022/09/12 03:58:00;;;;;;;;;;;17.90;74.20;;;;;;5136834;27;19903;-68
2022/09/12 04:00:26;;;;;;;;;;;17.80;74.00;;;;;;5136740;27;19903;-68
2022/09/12 04:02:52;;;;;;;;;;;17.80;74.00;;;;;;5136669;27;20035;-68
2022/09/12 04:05:18;;;;;;;;;;;17.70;74.00;;;;;;5136742;27;19958;-68
2022/09/12 04:07:43;;;;;;;;;;;17.70;74.10;;;;;;5136576;27;19907;-68
2022/09/12 04:10:09;;;;;;;;;;;17.70;74.10;;;;;;5117376;27;19916;-68
2022/09/12 04:12:35;;;;;;;;;;;17.60;74.10;;;;;;5115905;28;20009;-69
2022/09/12 04:15:00;;;;;;;;;;;17.60;74.20;;;;;;5115923;28;20033;-68
2022/09/12 04:17:26;;;;;;;;;;;17.60;74.30;;;;;;5097581;28;20389;-69
2022/09/12 04:19:51;;;;;;;;;;;17.50;74.30;;;;;;5115706;28;19908;-68
2022/09/12 04:22:17;;;;;;;;;;;17.50;74.30;;;;;;5115863;28;19950;-68
2022/09/12 04:24:42;;;;;;;;;;;17.50;74.30;;;;;;5119037;27;19931;-69
2022/09/12 04:27:08;;;;;;;;;;;17.40;74.20;;;;;;5116036;27;19935;-68
2022/09/12 04:29:34;;;;;;;;;;;17.40;74.20;;;;;;5115571;28;19930;-69
2022/09/12 04:32:00;;;;;;;;;;;17.30;74.20;;;;;;5128021;27;19915;-68
2022/09/12 04:34:28;;;;;;;;;;;17.30;74.30;;;;;;5117805;27;19907;-69
2022/09/12 04:36:54;;;;;;;;;;;17.30;74.50;;;;;;5136141;27;19903;-68
2022/09/12 04:39:20;;;;;;;;;;;17.30;74.60;;;;;;5117706;27;19911;-68
2022/09/12 04:41:45;;;;;;;;;;;17.30;74.70;;;;;;5136070;27;19910;-68
2022/09/12 04:44:12;;;;;;;;;;;17.20;74.70;;;;;;5117125;27;19997;-68
2022/09/12 04:46:39;;;;;;;;;;;17.20;74.80;;;;;;5134745;27;20354;-68
2022/09/12 04:49:05;;;;;;;;;;;17.20;74.80;;;;;;5115175;28;19913;-69
2022/09/12 04:51:32;;;;;;;;;;;17.20;74.90;;;;;;5097057;28;20340;-69
2022/09/12 04:54:03;;;;;;;;;;;17.20;74.80;;;;;;5115316;28;19907;-69
2022/09/12 04:56:29;;;;;;;;;;;17.20;74.80;;;;;;5115018;27;20019;-69
2022/09/12 04:58:59;;;;;;;;;;;17.20;74.80;;;;;;5114949;28;20373;-69
2022/09/12 05:01:25;;;;;;;;;;;17.10;74.80;;;;;;5096735;28;20282;-69
2022/09/12 05:03:51;;;;;;;;;;;17.10;74.80;;;;;;5114970;27;19908;-70
2022/09/12 05:06:18;;;;;;;;;;;17.10;74.90;;;;;;5114866;27;20362;-69
2022/09/12 05:08:43;;;;;;;;;;;17.10;74.90;;;;;;5116503;27;19919;-69
2022/09/12 05:11:11;;;;;;;;;;;17.10;75.00;;;;;;5133616;27;19907;-69
2022/09/12 05:13:37;;;;;;;;;;;17.10;75.10;;;;;;5114810;27;19931;-69
2022/09/12 05:16:04;;;;;;;;;;;17.10;75.10;;;;;;5114675;27;19907;-69
2022/09/12 05:18:30;;;;;;;;;;;17.10;75.10;;;;;;5114701;28;19915;-68
2022/09/12 05:20:58;;;;;;;;;;;17.10;75.10;;;;;;5114526;27;20002;-69
2022/09/12 05:23:23;;;;;;;;;;;17.10;75.10;;;;;;5115776;27;19914;-69
2022/09/12 05:25:53;;;;;;;;;;;17.10;75.20;;;;;;5130259;27;19907;-68
2022/09/12 05:28:19;;;;;;;;;;;17.10;75.30;;;;;;5114402;28;19911;-68
2022/09/12 05:30:45;;;;;;;;;;;17.10;75.60;;;;;;5096132;28;19908;-69
2022/09/12 05:33:11;;;;;;;;;;;17.10;75.80;;;;;;5114030;28;19922;-69
2022/09/12 05:35:37;;;;;;;;;;;17.20;76.10;;;;;;5114145;28;19907;-68
2022/09/12 05:38:03;;;;;;;;;;;17.30;76.40;;;;;;5114188;27;19908;-68
2022/09/12 05:40:29;;;;;;;;;;;17.40;76.60;;;;;;5114002;28;20319;-68
2022/09/12 05:42:55;;;;;;;;;;;17.50;76.70;;;;;;5095963;28;19999;-69
2022/09/12 05:45:20;;;;;;;;;;;17.60;76.80;;;;;;5114036;28;20006;-68
2022/09/12 05:47:46;;;;;;;;;;;17.60;76.80;;;;;;5113865;27;20432;-68
2022/09/12 05:50:12;;;;;;;;;;;17.70;76.60;;;;;;5113747;27;19907;-69
2022/09/12 05:52:37;;;;;;;;;;;17.80;76.60;;;;;;5124446;27;19994;-69
2022/09/12 05:55:03;;;;;;;;;;;17.80;76.50;;;;;;5133838;27;19911;-69
2022/09/12 05:57:29;;;;;;;;;;;17.90;76.60;;;;;;5124992;27;19908;-68
2022/09/12 05:59:55;;;;;;;;;;;18.00;76.80;;;;;;5113907;27;19908;-69
2022/09/12 06:02:20;;;;;;;;;;;18.10;76.80;;;;;;5113774;27;19908;-68
2022/09/12 06:04:46;;;;;;;;;;;18.20;76.80;;;;;;5095587;28;20006;-69
2022/09/12 06:07:12;;;;;;;;;;;18.30;76.90;;;;;;5117123;27;20294;-68
2022/09/12 06:09:38;;;;;;;;;;;18.40;76.90;;;;;;5127506;27;19911;-68
2022/09/12 06:12:03;;;;;;;;;;;18.40;76.90;;;;;;5128519;27;19911;-69
2022/09/12 06:14:29;;;;;;;;;;;18.60;77.00;;;;;;5113760;28;20002;-69
2022/09/12 06:16:55;;;;;;;;;;;18.60;76.80;;;;;;5095639;28;20216;-69
2022/09/12 06:19:22;;;;;;;;;;;18.70;76.70;;;;;;5113719;28;20366;-68
2022/09/12 06:21:48;;;;;;;;;;;18.80;76.60;;;;;;5113714;28;19910;-68
2022/09/12 06:24:17;;;;;;;;;;;18.90;76.50;;;;;;5117208;27;20006;-68
2022/09/12 06:26:44;;;;;;;;;;;19.00;76.60;;;;;;5113639;28;20370;-68
2022/09/12 06:29:10;;;;;;;;;;;19.10;76.20;;;;;;5113452;28;19908;-69
2022/09/12 06:31:37;;;;;;;;;;;19.10;75.60;;;;;;5113463;28;20351;-69
2022/09/12 06:34:05;;;;;;;;;;;19.20;75.30;;;;;;5113617;28;20354;-68
2022/09/12 06:36:39;;;;;;;;;;;19.20;75.30;;;;;;5113377;28;19904;-68
2022/09/12 06:39:06;;;;;;;;;;;19.30;75.30;;;;;;5113555;28;19946;-69
2022/09/12 06:41:32;;;;;;;;;;;19.30;75.50;;;;;;5125306;28;20362;-68
2022/09/12 06:43:58;;;;;;;;;;;19.40;75.70;;;;;;5131740;28;19915;-68
2022/09/12 06:46:24;;;;;;;;;;;19.50;75.90;;;;;;5133968;28;19903;-68
2022/09/12 06:48:50;;;;;;;;;;;19.60;76.10;;;;;;5133805;28;20361;-68
2022/09/12 06:51:17;;;;;;;;;;;19.70;76.20;;;;;;5133981;28;19904;-69
2022/09/12 06:53:44;;;;;;;;;;;19.70;75.70;;;;;;5133932;28;19964;-69
2022/09/12 06:56:18;;;;;;;;;;;19.80;75.40;;;;;;5134023;28;19904;-68
2022/09/12 06:58:44;;;;;;;;;;;19.90;74.90;;;;;;5115390;28;19899;-68
2022/09/12 07:01:10;;;;;;;;;;;19.90;74.50;;;;;;5133854;28;19942;-68
2022/09/12 07:03:37;;;;;;;;;;;20.00;74.40;;;;;;5133610;28;19906;-68
2022/09/12 07:06:06;;;;;;;;;;;20.00;74.20;;;;;;5130682;28;19954;-69
2022/09/12 07:08:33;;;;;;;;;;;20.00;73.80;;;;;;5116746;28;20011;-69
2022/09/12 07:11:00;;;;;;;;;;;20.00;73.70;;;;;;5117119;28;19904;-68
2022/09/12 07:13:25;;;;;;;;;;;20.10;74.10;;;;;;5117286;28;19903;-69
2022/09/12 07:15:51;;;;;;;;;;;20.10;74.00;;;;;;5117232;28;19910;-68
2022/09/12 07:18:17;;;;;;;;;;;20.10;73.80;;;;;;5117227;28;19999;-68
2022/09/12 07:20:42;;;;;;;;;;;20.10;73.80;;;;;;5117216;28;19904;-68
2022/09/12 07:23:08;;;;;;;;;;;20.20;73.40;;;;;;5098820;28;19959;-69
2022/09/12 07:25:34;;;;;;;;;;;20.30;73.50;;;;;;5117035;28;19954;-69
2022/09/12 07:27:59;;;;;;;;;;;20.30;73.30;;;;;;5098708;28;20290;-68
2022/09/12 07:30:25;;;;;;;;;;;20.40;73.00;;;;;;5098652;28;19963;-69
2022/09/12 07:32:52;;;;;;;;;;;20.40;73.00;;;;;;5116590;28;19955;-69
2022/09/12 07:35:18;;;;;;;;;;;20.50;73.10;;;;;;5116667;28;19994;-68
2022/09/12 07:37:43;;;;;;;;;;;20.50;73.00;;;;;;5116760;27;19946;-68
2022/09/12 07:40:09;;;;;;;;;;;20.60;73.00;;;;;;5116754;28;19907;-68
2022/09/12 07:42:35;;;;;;;;;;;20.70;73.30;;;;;;5116792;28;19900;-68
2022/09/12 07:45:00;;;;;;;;;;;20.80;73.70;;;;;;5116586;28;19911;-69
2022/09/12 07:47:26;;;;;;;;;;;20.90;73.30;;;;;;5116340;28;19907;-68
2022/09/12 07:49:52;;;;;;;;;;;21.00;72.50;;;;;;5116563;28;19904;-68
2022/09/12 07:52:17;;;;;;;;;;;21.00;72.30;;;;;;5116392;28;19904;-69
2022/09/12 07:54:43;;;;;;;;;;;21.10;71.90;;;;;;5116498;28;19918;-68
2022/09/12 07:57:09;;;;;;;;;;;21.10;71.30;;;;;;5116474;28;19954;-69
2022/09/12 07:59:37;;;;;;;;;;;21.10;71.10;;;;;;5116468;28;19904;-68
2022/09/12 08:02:02;;;;;;;;;;;21.10;71.10;;;;;;5098043;28;19910;-69
2022/09/12 08:04:29;;;;;;;;;;;21.00;70.90;;;;;;5116003;28;20312;-69
2022/09/12 08:06:54;;;;;;;;;;;21.00;70.80;;;;;;5119008;27;20399;-68
2022/09/12 08:09:20;;;;;;;;;;;20.90;70.80;;;;;;5136510;27;19957;-68
2022/09/12 08:11:46;;;;;;;;;;;20.90;70.60;;;;;;5136727;27;20363;-68
2022/09/12 08:14:11;;;;;;;;;;;20.90;70.40;;;;;;5136803;27;19903;-69
2022/09/12 08:16:37;;;;;;;;;;;20.80;70.20;;;;;;5136916;27;19915;-68
2022/09/12 08:19:03;;;;;;;;;;;20.70;70.30;;;;;;5135982;27;19904;-68
2022/09/12 08:21:30;;;;;;;;;;;20.70;70.30;;;;;;5136865;27;20285;-68
2022/09/12 08:24:00;;;;;;;;;;;20.60;70.30;;;;;;5118240;27;19903;-68
2022/09/12 08:26:25;;;;;;;;;;;20.60;70.20;;;;;;5136682;27;19903;-68
2022/09/12 08:28:52;;;;;;;;;;;20.60;70.50;;;;;;5136619;27;20422;-68
2022/09/12 08:31:20;;;;;;;;;;;20.50;70.70;;;;;;5136557;27;20003;-68
2022/09/12 08:33:45;;;;;;;;;;;20.50;71.00;;;;;;5136453;27;19947;-68
2022/09/12 08:36:16;;;;;;;;;;;20.50;71.10;;;;;;5136534;27;19995;-67
2022/09/12 08:38:43;;;;;;;;;;;20.60;71.20;;;;;;5116905;27;19960;-68
2022/09/12 08:41:29;;;;;;;;;;;20.60;71.70;;;;;;5115812;28;19994;-68
2022/09/12 08:44:00;;;;;;;;;;;20.70;71.90;;;;;;5115096;28;19942;-69
2022/09/12 08:46:30;;;;;;;;;;;20.70;71.50;;;;;;5097454;28;19916;-68
2022/09/12 08:48:57;;;;;;;;;;;20.90;71.90;;;;;;5115643;28;19968;-68
2022/09/12 08:51:22;;;;;;;;;;;20.90;72.00;;;;;;5115655;28;19942;-68
2022/09/12 08:53:49;;;;;;;;;;;21.10;72.30;;;;;;5115691;28;19946;-67
2022/09/12 08:56:15;;;;;;;;;;;21.20;72.00;;;;;;5115577;28;20287;-68
2022/09/12 08:58:43;;;;;;;;;;;21.30;71.80;;;;;;5115540;28;19910;-68
2022/09/12 09:01:19;;;;;;;;;;;21.40;71.30;;;;;;5115340;28;19952;-68
2022/09/12 09:03:49;;;;;;;;;;;21.40;70.80;;;;;;5115205;28;19969;-68
2022/09/12 09:06:41;;;;;;;;;;;21.50;70.80;;;;;;5115363;28;19903;-68
2022/09/12 09:09:21;;;;;;;;;;;21.60;71.00;;;;;;5091296;28;19916;-68
2022/09/12 09:11:50;;;;;;;;;;;21.60;70.30;;;;;;5115138;28;19911;-68
2022/09/12 09:17:11;;;;;;;;;;;21.60;69.50;;;;;;5115168;28;19995;-68
2022/09/12 09:19:41;;;;;;;;;;;21.60;68.90;;;;;;5096718;28;20349;-68
2022/09/12 09:22:11;;;;;;;;;;;21.60;68.60;;;;;;5115064;28;19908;-67
2022/09/12 09:24:40;;;;;;;;;;;21.50;68.20;;;;;;5114952;28;19908;-68
2022/09/12 09:27:09;;;;;;;;;;;21.50;68.10;;;;;;5114922;28;19904;-67
2022/09/12 09:29:38;;;;;;;;;;;21.40;67.60;;;;;;5114538;28;19908;-67
2022/09/12 09:32:09;;;;;;;;;;;21.30;67.70;;;;;;5114221;28;19911;-68
2022/09/12 09:34:34;;;;;;;;;;;21.30;67.90;;;;;;5114775;28;19960;-68
2022/09/12 09:37:18;;;;;;;;;;;21.20;67.80;;;;;;5114706;28;19907;-67
2022/09/12 09:40:05;;;;;;;;;;;21.10;68.00;;;;;;5114762;28;19903;-67
2022/09/12 09:42:53;;;;;;;;;;;21.10;68.10;;;;;;5114721;28;19903;-68
2022/09/12 09:45:20;;;;;;;;;;;21.10;68.10;;;;;;5114579;28;19946;-68
2022/09/12 09:48:06;;;;;;;;;;;21.10;68.40;;;;;;5114502;28;19911;-67
2022/09/12 09:50:32;;;;;;;;;;;21.10;68.40;;;;;;5079050;28;19910;-68
2022/09/12 09:53:00;;;;;;;;;;;21.10;68.60;;;;;;5114432;28;19908;-67
2022/09/12 09:55:28;;;;;;;;;;;21.10;68.30;;;;;;5114398;28;19903;-68
2022/09/12 09:57:54;;;;;;;;;;;21.10;68.50;;;;;;5114387;28;19903;-68
2022/09/12 10:00:24;;;;;;;;;;;21.20;68.80;;;;;;5114399;28;20385;-68
2022/09/12 10:03:21;;;;;;;;;;;21.20;68.80;;;;;;5096000;28;19987;-68
2022/09/12 10:05:48;;;;;;;;;;;21.20;68.60;;;;;;5114319;28;19903;-68
2022/09/12 10:08:25;;;;;;;;;;;21.20;68.60;;;;;;5113922;28;19912;-68
2022/09/12 10:10:54;;;;;;;;;;;21.30;68.60;;;;;;5113969;28;19910;-68
2022/09/12 10:13:26;;;;;;;;;;;21.30;68.50;;;;;;5095886;28;19952;-68
2022/09/12 10:15:57;;;;;;;;;;;21.40;68.50;;;;;;5113999;28;19926;-69
2022/09/12 10:18:33;;;;;;;;;;;21.40;68.40;;;;;;5114061;28;19904;-68
2022/09/12 10:21:00;;;;;;;;;;;21.40;68.50;;;;;;5113995;28;19915;-68
2022/09/12 10:23:39;;;;;;;;;;;21.40;68.20;;;;;;5113960;28;19904;-68
2022/09/12 10:26:12;;;;;;;;;;;21.50;68.00;;;;;;5114045;28;19904;-68
2022/09/12 10:28:48;;;;;;;;;;;21.50;67.80;;;;;;5113903;28;19912;-68
2022/09/12 10:31:15;;;;;;;;;;;21.50;67.60;;;;;;5113768;28;20003;-68
2022/09/12 10:33:51;;;;;;;;;;;21.60;67.20;;;;;;5113577;28;20064;-68
2022/09/12 10:36:18;;;;;;;;;;;21.60;67.20;;;;;;5113909;28;19903;-68
2022/09/12 10:38:57;;;;;;;;;;;21.60;66.50;;;;;;5113672;28;19908;-68
2022/09/12 10:41:23;;;;;;;;;;;21.60;66.40;;;;;;5113349;28;19911;-68
2022/09/12 10:43:49;;;;;;;;;;;21.70;66.70;;;;;;5113736;28;20278;-67
2022/09/12 10:46:15;;;;;;;;;;;21.70;66.70;;;;;;5113574;28;19904;-68
2022/09/12 10:48:41;;;;;;;;;;;21.70;66.70;;;;;;5113632;28;19908;-68
2022/09/12 10:51:13;;;;;;;;;;;21.80;66.90;;;;;;5113711;28;19931;-68
2022/09/12 10:53:40;;;;;;;;;;;21.90;67.00;;;;;;5113577;28;19907;-69
2022/09/12 10:56:08;;;;;;;;;;;21.90;67.00;;;;;;5113668;28;20273;-67
2022/09/12 10:58:53;;;;;;;;;;;22.00;67.20;;;;;;5113658;28;19950;-68
2022/09/12 11:01:30;;;;;;;;;;;22.10;67.10;;;;;;5113511;28;19908;-68
2022/09/12 11:04:15;;;;;;;;;;;22.10;67.00;;;;;;5113500;28;19908;-68
2022/09/12 11:06:59;;;;;;;;;;;22.20;66.80;;;;;;5095142;28;19964;-68
2022/09/12 11:09:37;;;;;;;;;;;22.20;66.00;;;;;;5095135;28;20396;-68
2022/09/12 11:12:05;;;;;;;;;;;22.30;66.40;;;;;;5095169;28;19911;-68
2022/09/12 11:14:38;;;;;;;;;;;22.30;66.10;;;;;;5113506;28;19904;-68
2022/09/12 11:17:03;;;;;;;;;;;22.30;66.00;;;;;;5113471;28;19959;-67
2022/09/12 11:19:29;;;;;;;;;;;22.40;66.00;;;;;;5113458;28;20065;-68
2022/09/12 11:22:13;;;;;;;;;;;22.50;65.30;;;;;;5113453;28;19911;-68
2022/09/12 11:24:45;;;;;;;;;;;22.50;65.30;;;;;;5113293;28;19907;-68
2022/09/12 11:27:16;;;;;;;;;;;22.60;65.00;;;;;;5113380;28;19910;-68
2022/09/12 11:29:50;;;;;;;;;;;22.60;64.80;;;;;;5113220;28;19908;-68
2022/09/12 11:32:31;;;;;;;;;;;22.60;64.40;;;;;;5113144;28;20381;-68
2022/09/12 11:35:05;;;;;;;;;;;22.70;64.20;;;;;;5113265;28;19911;-68
2022/09/12 11:37:43;;;;;;;;;;;22.70;65.00;;;;;;5113119;28;19907;-68
2022/09/12 11:40:21;;;;;;;;;;;22.80;63.40;;;;;;5113227;28;19908;-68
2022/09/12 11:42:48;;;;;;;;;;;22.80;62.90;;;;;;5113215;28;20015;-68
2022/09/12 11:45:28;;;;;;;;;;;22.80;63.00;;;;;;5113131;28;19911;-68
2022/09/12 11:47:55;;;;;;;;;;;22.90;63.00;;;;;;5113010;28;19964;-67
2022/09/12 11:50:25;;;;;;;;;;;22.90;63.10;;;;;;5113148;28;19904;-68
2022/09/12 11:52:52;;;;;;;;;;;23.00;63.40;;;;;;5113173;28;19904;-69
2022/09/12 11:55:20;;;;;;;;;;;23.00;63.20;;;;;;5116182;28;19992;-68
2022/09/12 11:57:52;;;;;;;;;;;23.10;62.50;;;;;;5116735;28;19911;-68
2022/09/12 12:00:17;;;;;;;;;;;23.10;62.50;;;;;;5116587;28;19903;-68
2022/09/12 12:02:43;;;;;;;;;;;23.20;62.70;;;;;;5116613;28;20285;-68
2022/09/12 12:05:30;;;;;;;;;;;23.30;62.90;;;;;;5116419;28;19903;-68
2022/09/12 12:07:57;;;;;;;;;;;23.30;61.40;;;;;;5116275;28;19964;-68
2022/09/12 12:10:28;;;;;;;;;;;23.30;60.80;;;;;;5116402;28;19943;-68
2022/09/12 12:12:55;;;;;;;;;;;23.30;60.50;;;;;;5098074;28;20281;-68
2022/09/12 12:15:21;;;;;;;;;;;23.30;60.80;;;;;;5116362;28;20435;-68
2022/09/12 12:18:00;;;;;;;;;;;23.30;60.80;;;;;;5116326;28;19904;-68
2022/09/12 12:20:27;;;;;;;;;;;23.40;61.00;;;;;;5116286;28;20018;-67
2022/09/12 12:22:54;;;;;;;;;;;23.40;60.90;;;;;;5116147;28;19904;-68
2022/09/12 12:25:19;;;;;;;;;;;23.40;61.30;;;;;;5116130;28;19904;-68
2022/09/12 12:28:00;;;;;;;;;;;23.50;60.80;;;;;;5116098;28;20363;-68
2022/09/12 12:30:28;;;;;;;;;;;23.50;60.70;;;;;;5116124;28;19933;-68
2022/09/12 12:33:01;;;;;;;;;;;23.60;60.60;;;;;;5115738;28;19919;-69
2022/09/12 12:35:37;;;;;;;;;;;23.60;60.50;;;;;;5115901;28;19965;-69
2022/09/12 12:38:04;;;;;;;;;;;23.70;60.40;;;;;;5097618;28;19907;-66
2022/09/12 12:40:30;;;;;;;;;;;23.70;60.20;;;;;;5115896;28;19904;-66
2022/09/12 12:42:57;;;;;;;;;;;23.70;59.80;;;;;;5115815;28;20315;-66
2022/09/12 12:45:26;;;;;;;;;;;23.80;59.60;;;;;;5115759;28;20247;-66
2022/09/12 12:47:56;;;;;;;;;;;23.80;59.60;;;;;;5115638;28;19970;-67
2022/09/12 12:50:24;;;;;;;;;;;23.80;59.10;;;;;;5115655;28;19904;-66
2022/09/12 12:52:52;;;;;;;;;;;23.90;59.60;;;;;;5115649;28;19905;-67
2022/09/12 12:55:26;;;;;;;;;;;24.00;59.50;;;;;;5115523;28;19908;-66
2022/09/12 12:57:54;;;;;;;;;;;24.00;59.10;;;;;;5115395;28;20369;-66
2022/09/12 13:00:20;;;;;;;;;;;24.10;58.80;;;;;;5115444;28;19904;-67
2022/09/12 13:02:51;;;;;;;;;;;24.10;58.50;;;;;;5115362;28;19904;-67
2022/09/12 13:05:21;;;;;;;;;;;24.10;58.00;;;;;;5115072;28;19961;-67
2022/09/12 13:07:52;;;;;;;;;;;24.20;57.50;;;;;;5115095;28;19914;-67
2022/09/12 13:10:22;;;;;;;;;;;24.10;57.00;;;;;;5115342;28;19903;-66
2022/09/12 13:12:48;;;;;;;;;;;24.20;57.60;;;;;;5115214;28;19904;-67
2022/09/12 13:15:32;;;;;;;;;;;24.30;57.60;;;;;;5115155;28;19947;-67
2022/09/12 13:18:01;;;;;;;;;;;24.30;57.60;;;;;;5115084;28;19915;-66
2022/09/12 13:20:30;;;;;;;;;;;24.30;58.10;;;;;;5114892;28;19910;-66
2022/09/12 13:22:56;;;;;;;;;;;24.40;57.00;;;;;;5114920;28;19926;-66
2022/09/12 13:25:24;;;;;;;;;;;24.50;57.50;;;;;;5114930;28;20359;-66
2022/09/12 13:28:22;;;;;;;;;;;24.50;57.70;;;;;;5114615;28;19903;-66
2022/09/12 13:30:57;;;;;;;;;;;24.60;57.50;;;;;;5012304;28;20004;-66
2022/09/12 13:33:32;;;;;;;;;;;24.70;56.60;;;;;;5012093;28;20004;-67
2022/09/12 13:36:16;;;;;;;;;;;24.70;56.30;;;;;;5012379;28;19906;-67
2022/09/12 13:38:50;;;;;;;;;;;24.70;56.00;;;;;;5012726;28;19913;-66
2022/09/12 13:41:22;;;;;;;;;;;24.80;55.90;;;;;;5012252;28;19909;-67
2022/09/12 13:43:48;;;;;;;;;;;24.80;55.20;;;;;;4995719;28;19913;-67
2022/09/12 13:46:16;;;;;;;;;;;24.80;55.00;;;;;;5012191;28;19996;-66
2022/09/12 13:48:43;;;;;;;;;;;24.80;54.40;;;;;;5012057;28;19909;-67
2022/09/12 13:51:21;;;;;;;;;;;24.80;54.40;;;;;;5012181;28;19909;-66
2022/09/12 13:53:47;;;;;;;;;;;24.90;54.60;;;;;;5012136;28;19948;-67
2022/09/12 13:56:17;;;;;;;;;;;24.90;54.80;;;;;;4998534;28;19934;-67
2022/09/12 13:58:59;;;;;;;;;;;24.90;54.90;;;;;;5015181;28;19905;-68
2022/09/12 14:01:41;;;;;;;;;;;25.00;55.50;;;;;;5031700;28;19943;-68
2022/09/12 14:07:08;;;;;;;;;;;25.20;55.00;;;;;;5093855;28;19911;-70
2022/09/12 14:09:38;;;;;;;;;;;25.30;55.50;;;;;;5093755;28;19912;-70
2022/09/12 14:12:17;;;;;;;;;;;25.40;55.70;;;;;;5093714;28;19904;-70
2022/09/12 14:14:44;;;;;;;;;;;25.60;56.10;;;;;;5093852;28;19904;-70
2022/09/12 14:17:16;;;;;;;;;;;25.90;56.50;;;;;;5093079;28;19911;-70
2022/09/12 14:19:42;;;;;;;;;;;26.20;56.60;;;;;;5093606;28;19904;-70
2022/09/12 14:22:16;;;;;;;;;;;26.40;55.90;;;;;;5093604;28;20363;-71
2022/09/12 14:24:50;;;;;;;;;;;26.70;54.90;;;;;;5093663;28;19953;-71
2022/09/12 14:27:24;;;;;;;;;;;26.90;54.30;;;;;;5093593;28;19910;-71
2022/09/12 14:30:00;;;;;;;;;;;27.20;55.30;;;;;;5093367;28;19914;-71
2022/09/12 14:32:26;;;;;;;;;;;27.50;55.90;;;;;;5100253;28;19915;-71
2022/09/12 14:35:10;;;;;;;;;;;27.80;55.40;;;;;;5113769;28;19940;-71